Aérodrome :
LOGIN :

S'inscrire | Disclaimer

   EN    FR    IT 

 










Légende :    VFR   VFR Marginal   IFR   IFR Intensif   IFR Très Intensif
Visi : 
Plafond : 
>= 8 km
>= 3000ft
5 à 8 km
1000 à 3000 ft
1500m à 5 km
500 à 1000 ft
800 à 1500m
200 à 500 ft
< 800m
< 200 ft
Symboles :   Orages  Brouillard  Fortes neiges  Fortes précipitations  Vent > 20 kt
SIGMETs :   Divers  Orages  Givrage  Turbulence  Onde Orograph.  Cendres Volcan.







- Altitude de l'aérodrome : 32 ft
- Code IATA : LKZ


EGUL - RAF Lakenheath

DERNIER METAR :
  • 190556Z AUTO 00000KT 9999 CLR 04/03 A3044 RMK AO2 SLP311 T00420030 10060 20036 53005 $

METARs EXPIRÉS :
  • 190456Z AUTO 00000KT 9999 CLR 04/03 A3043 RMK AO2 SLP308 T00390027 $
  • 190356Z AUTO 00000KT 9999 CLR 04/ A3043 RMK AO2 SLP308 $

TAF TAF EGUL
Valide du 19 à 05h jusqu'au 20 à 11h UTC


190500Z 1905/2011 36006KT 9999 SCT030 SCT150 QNH3042INS
BECMG 2004/2005 17006KT 6000 BR FEW030 QNH3036INS
BECMG 2007/2008 12006KT 9999 NSW SCT020 QNH3032INS TX19/1915Z TN04/1905Z
Pas de NOTAMs connus pour ce terrain.



MET'MAP, la Météo Aéronautique d'un coup d'oeil ! - Copyright ORBIFLY Décembre 2007 - Disclaimer

ORBIFLY MET'MAP TEAM :

Programmation & Développement : Alexandra Zaïnal
Conception & Développement : Baudouin d'Aumeries
Co-Programmation & Développement : Marc-Olivier Méhu
Soutien technique & logistique : Manuel Goepfert

Contact : metmap@orbifly.com




SOURCES & CREDITS :

   NOAA